Brilliance Of The Seas — C6SJ5 — position and weather

sailwx.info

Track history (hours):
 
Tides and Currents Weather Stations Pressure Air Temp Water Temp Dewpoint Dewpoint Depression Visibility Wind Speed Wind Dir Waves Ship Positions

Brilliance Of The Seas

Operator: Royal Caribbean Cruises Ltd

Last reported at 2018-Feb-21 09:00 UTC. Time now 2018-Feb-22 01:22 UTC.
Position N 22°30' W 085°48'.

Type: Ship. MMSI: 311361000.

Wind from 100 at 20 knots

Barometer 1022.0 mb
Air temperature 26.0 ° C
Visibility: greater than 5.4 NM
Dewpoint 24.6 ° C
Water temperature 27.0 ° C

Date/timePositionNaut miles runAvg speedWind from/ knotsBaromVisibWave heightAir tempDewpointWater temp
2018-Feb-21 09:00N 22°30' W 085°48'10016.7 100 / 201022.0 5.4 26.024.627.0
2018-Feb-21 03:00N 21°00' W 086°36'3415.7 100 / 241021.010.8 26.0 26.0
2018-Feb-21 00:48N 20°32' W 086°57'3 9.9
2018-Feb-21 00:30N 20°29' W 086°59'0 0.9
2018-Feb-20 23:59N 20°29' W 086°59'0 0.0
2018-Feb-20 23:29N 20°29' W 086°59'0 0.0
2018-Feb-20 22:59N 20°29' W 086°59'0 0.0
2018-Feb-20 22:29N 20°29' W 086°59'0 0.0
2018-Feb-20 21:59N 20°29' W 086°59'0 0.0
2018-Feb-20 21:29N 20°29' W 086°59'0 0.0
2018-Feb-20 20:56N 20°29' W 086°59'0 0.0
2018-Feb-20 20:29N 20°29' W 086°59'0 0.0
2018-Feb-20 19:59N 20°29' W 086°59'0 0.0
2018-Feb-20 19:26N 20°29' W 086°59'0 0.0
2018-Feb-20 18:59N 20°29' W 086°59'0 0.0
2018-Feb-20 18:23N 20°29' W 086°59'0 0.0
2018-Feb-20 17:59N 20°29' W 086°59'0 0.0
2018-Feb-20 17:29N 20°29' W 086°59'0 0.0
2018-Feb-20 16:56N 20°29' W 086°59'0 0.0
2018-Feb-20 16:23N 20°29' W 086°59'0 0.0
2018-Feb-20 15:59N 20°29' W 086°59'0 0.0
2018-Feb-20 15:29N 20°29' W 086°59'0 0.0
2018-Feb-20 14:56N 20°29' W 086°59'0 0.0
2018-Feb-20 14:30N 20°29' W 086°59'2 3.5
2018-Feb-20 14:00N 20°31' W 086°59'35 6.9
2018-Feb-20 09:00N 20°18' W 086°24'16633.2 110 / 181019.0 5.4 26.024.627.0
2018-Feb-20 04:00N 19°48' W 083°30'86 4.5 090 / 191020.010.8 26.0 26.0
2018-Feb-19 09:00N 19°36' W 082°00'12017.1 060 / 271019.0 5.4 26.024.627.0
2018-Feb-19 02:00N 20°48' W 083°42'33019.4 070 / 241019.010.8 25.0 27.0
2018-Feb-18 09:00N 15°18' W 083°54'685137.0 090 / 191023.0 5.4 23.021.625.0
2018-Feb-18 04:00N 26°42' W 083°18'7515.2 110 / 91025.027.0 22.0 23.0
2018-Feb-17 23:05N 27°44' W 082°32'115.1
2018-Feb-17 23:00N 27°45' W 082°31'711.6
2018-Feb-17 22:23N 27°51' W 082°27'4 9.4
2018-Feb-17 22:00N 27°55' W 082°27'2 3.8
2018-Feb-17 21:28N 27°57' W 082°27'0 0.1
2018-Feb-17 20:58N 27°57' W 082°27'0 0.0
2018-Feb-17 20:28N 27°57' W 082°27'0 0.0
2018-Feb-17 19:58N 27°57' W 082°27'0 0.0
2018-Feb-17 19:28N 27°57' W 082°27'0 0.0
2018-Feb-17 18:58N 27°57' W 082°27'0 0.0
2018-Feb-17 18:28N 27°57' W 082°27'0 0.0
2018-Feb-17 17:58N 27°57' W 082°27'0 0.0
2018-Feb-17 17:28N 27°57' W 082°27'0 0.0
2018-Feb-17 16:58N 27°57' W 082°27'0 0.0
2018-Feb-17 16:28N 27°57' W 082°27'0 0.0
2018-Feb-17 15:58N 27°57' W 082°27'0 0.0
2018-Feb-17 15:28N 27°57' W 082°27'0 0.0
2018-Feb-17 14:58N 27°57' W 082°27'0 0.0
2018-Feb-17 14:28N 27°57' W 082°27'0 0.0
2018-Feb-17 13:58N 27°57' W 082°27'0 0.0
2018-Feb-17 13:28N 27°57' W 082°27'0 0.0
2018-Feb-17 12:58N 27°57' W 082°27'0 0.0
2018-Feb-17 12:28N 27°57' W 082°27'0 0.0
2018-Feb-17 11:58N 27°57' W 082°27'0 0.0
2018-Feb-17 11:28N 27°57' W 082°27'0 0.0
2018-Feb-17 10:58N 27°57' W 082°27'0 0.0
2018-Feb-17 10:28N 27°57' W 082°27'0 0.0
2018-Feb-17 09:58N 27°57' W 082°27'0 0.0
2018-Feb-17 09:28N 27°57' W 082°27'0 0.0
2018-Feb-17 09:00N 27°57' W 082°27'1 1.0
2018-Feb-17 08:30N 27°56' W 082°27'2 3.8
2018-Feb-17 08:00N 27°54' W 082°26'4 8.7
2018-Feb-17 07:30N 27°50' W 082°27'510.6
2018-Feb-17 07:00N 27°47' W 082°31'913.6
2018-Feb-17 06:20N 27°39' W 082°37'33615.7
2018-Feb-16 09:00N 22°48' W 085°42'9315.4 070 / 131022.0 5.4 26.024.627.0
2018-Feb-16 03:00N 21°24' W 086°24'6116.4 090 / 191021.010.8 25.0 25.0
2018-Feb-15 23:19N 20°32' W 086°57'310.1
2018-Feb-15 23:00N 20°29' W 086°59'0 0.5
2018-Feb-15 22:29N 20°29' W 086°59'0 0.0
2018-Feb-15 21:59N 20°29' W 086°59'0 0.0
2018-Feb-15 21:29N 20°29' W 086°59'0 0.0
2018-Feb-15 20:59N 20°29' W 086°59'0 0.0
2018-Feb-15 20:29N 20°29' W 086°59'0 0.0
2018-Feb-15 19:56N 20°29' W 086°59'0 0.0
2018-Feb-15 19:26N 20°29' W 086°59'0 0.0
2018-Feb-15 18:59N 20°29' W 086°59'0 0.0
2018-Feb-15 18:29N 20°29' W 086°59'0 0.0
2018-Feb-15 17:56N 20°29' W 086°59'0 0.0
2018-Feb-15 17:29N 20°29' W 086°59'0 0.0
2018-Feb-15 16:56N 20°29' W 086°59'0 0.0
2018-Feb-15 16:29N 20°29' W 086°59'0 0.0
2018-Feb-15 15:59N 20°29' W 086°59'0 0.0
2018-Feb-15 15:29N 20°29' W 086°59'0 0.0
2018-Feb-15 14:59N 20°29' W 086°59'0 0.0
2018-Feb-15 14:29N 20°29' W 086°59'0 0.0
2018-Feb-15 13:59N 20°29' W 086°59'0 0.0
2018-Feb-15 13:29N 20°29' W 086°59'0 0.0
2018-Feb-15 12:59N 20°29' W 086°59'0 0.0
2018-Feb-15 12:29N 20°29' W 086°59'0 0.0
2018-Feb-15 11:56N 20°29' W 086°59'0 0.0
2018-Feb-15 11:27N 20°29' W 086°59'0 0.3
2018-Feb-15 11:01N 20°29' W 086°59'2 4.1
2018-Feb-15 10:31N 20°31' W 086°59'2315.2
2018-Feb-15 09:00N 20°48' W 086°42'6616.4 110 / 261023.0 5.4 25.023.627.0
2018-Feb-15 05:00N 21°36' W 085°54'193 9.6 060 / 191025.010.8 25.0 25.0
2018-Feb-14 09:00N 23°30' W 083°06'6112.2 080 / 141026.0 5.4 25.022.226.0
2018-Feb-14 04:00N 24°06' W 082°12'73 3.8 090 / 191028.010.8 24.0 24.0
2018-Feb-13 09:00N 24°54' W 083°12'17417.2 070 / 271026.0 5.4 23.021.623.0
2018-Feb-12 22:51N 27°44' W 082°32'413.0
2018-Feb-12 22:31N 27°48' W 082°29'612.7
2018-Feb-12 22:00N 27°54' W 082°26'2 4.6
2018-Feb-12 21:30N 27°56' W 082°27'1 1.3
2018-Feb-12 21:00N 27°57' W 082°27'0 0.0
2018-Feb-12 20:30N 27°57' W 082°27'0 0.0
2018-Feb-12 20:00N 27°57' W 082°27'0 0.0
2018-Feb-12 19:30N 27°57' W 082°27'0 0.0
2018-Feb-12 19:00N 27°57' W 082°27'0 0.0
2018-Feb-12 18:30N 27°57' W 082°27'0 0.0
2018-Feb-12 18:00N 27°57' W 082°27'0 0.0
2018-Feb-12 17:30N 27°57' W 082°27'0 0.0
2018-Feb-12 17:00N 27°57' W 082°27'0 0.0
2018-Feb-12 16:30N 27°57' W 082°27'0 0.0
2018-Feb-12 16:00N 27°57' W 082°27'0 0.0
2018-Feb-12 13:00N 27°57' W 082°27'0 0.0
2018-Feb-12 12:30N 27°57' W 082°27'0 0.0
2018-Feb-12 12:00N 27°57' W 082°27'0 0.0
2018-Feb-12 11:30N 27°57' W 082°27'0 0.0
2018-Feb-12 11:00N 27°57' W 082°27'0 0.0
2018-Feb-12 10:30N 27°57' W 082°27'0 0.0
2018-Feb-12 10:00N 27°57' W 082°27'0 0.0
2018-Feb-12 09:30N 27°57' W 082°27'0 0.0
2018-Feb-12 09:00N 27°57' W 082°27'0 0.8
2018-Feb-12 08:30N 27°56' W 082°27'1 2.9
2018-Feb-12 08:00N 27°55' W 082°27'4 8.6
2018-Feb-12 07:30N 27°51' W 082°27'612.5
2018-Feb-12 07:00N 27°46' W 082°31'8614.3
2018-Feb-12 01:00N 26°42' W 083°36'24715.5 150 / 91020.0 5.4 23.0 20.0
2018-Feb-11 09:00N 23°00' W 085°36'   130 / 151017.0 5.4 25.023.626.0
Track history (hours):
 
Tides and Currents Weather Stations Pressure Air Temp Water Temp Dewpoint Dewpoint Depression Visibility Wind Speed Wind Dir Waves Ship Positions

Brilliance Of The Seas

Operator: Royal Caribbean Cruises Ltd

Last reported at 2018-Feb-21 09:00 UTC. Time now 2018-Feb-22 01:22 UTC.
Position N 22°30' W 085°48'.

Type: Ship. MMSI: 311361000.

Wind from 100 at 20 knots

Barometer 1022.0 mb
Air temperature 26.0 ° C
Visibility: greater than 5.4 NM
Dewpoint 24.6 ° C
Water temperature 27.0 ° C

Date/timePositionNaut miles runAvg speedWind from/ knotsBaromVisibWave heightAir tempDewpointWater temp
2018-Feb-21 09:00N 22°30' W 085°48'10016.7 100 / 201022.0 5.4 26.024.627.0
2018-Feb-21 03:00N 21°00' W 086°36'3415.7 100 / 241021.010.8 26.0 26.0
2018-Feb-21 00:48N 20°32' W 086°57'3 9.9
2018-Feb-21 00:30N 20°29' W 086°59'0 0.9
2018-Feb-20 23:59N 20°29' W 086°59'0 0.0
2018-Feb-20 23:29N 20°29' W 086°59'0 0.0
2018-Feb-20 22:59N 20°29' W 086°59'0 0.0
2018-Feb-20 22:29N 20°29' W 086°59'0 0.0
2018-Feb-20 21:59N 20°29' W 086°59'0 0.0
2018-Feb-20 21:29N 20°29' W 086°59'0 0.0
2018-Feb-20 20:56N 20°29' W 086°59'0 0.0
2018-Feb-20 20:29N 20°29' W 086°59'0 0.0
2018-Feb-20 19:59N 20°29' W 086°59'0 0.0
2018-Feb-20 19:26N 20°29' W 086°59'0 0.0
2018-Feb-20 18:59N 20°29' W 086°59'0 0.0
2018-Feb-20 18:23N 20°29' W 086°59'0 0.0
2018-Feb-20 17:59N 20°29' W 086°59'0 0.0
2018-Feb-20 17:29N 20°29' W 086°59'0 0.0
2018-Feb-20 16:56N 20°29' W 086°59'0 0.0
2018-Feb-20 16:23N 20°29' W 086°59'0 0.0
2018-Feb-20 15:59N 20°29' W 086°59'0 0.0
2018-Feb-20 15:29N 20°29' W 086°59'0 0.0
2018-Feb-20 14:56N 20°29' W 086°59'0 0.0
2018-Feb-20 14:30N 20°29' W 086°59'2 3.5
2018-Feb-20 14:00N 20°31' W 086°59'35 6.9
2018-Feb-20 09:00N 20°18' W 086°24'16633.2 110 / 181019.0 5.4 26.024.627.0
2018-Feb-20 04:00N 19°48' W 083°30'86 4.5 090 / 191020.010.8 26.0 26.0
2018-Feb-19 09:00N 19°36' W 082°00'12017.1 060 / 271019.0 5.4 26.024.627.0
2018-Feb-19 02:00N 20°48' W 083°42'33019.4 070 / 241019.010.8 25.0 27.0
2018-Feb-18 09:00N 15°18' W 083°54'685137.0 090 / 191023.0 5.4 23.021.625.0
2018-Feb-18 04:00N 26°42' W 083°18'7515.2 110 / 91025.027.0 22.0 23.0
2018-Feb-17 23:05N 27°44' W 082°32'115.1
2018-Feb-17 23:00N 27°45' W 082°31'711.6
2018-Feb-17 22:23N 27°51' W 082°27'4 9.4
2018-Feb-17 22:00N 27°55' W 082°27'2 3.8
2018-Feb-17 21:28N 27°57' W 082°27'0 0.1
2018-Feb-17 20:58N 27°57' W 082°27'0 0.0
2018-Feb-17 20:28N 27°57' W 082°27'0 0.0
2018-Feb-17 19:58N 27°57' W 082°27'0 0.0
2018-Feb-17 19:28N 27°57' W 082°27'0 0.0
2018-Feb-17 18:58N 27°57' W 082°27'0 0.0
2018-Feb-17 18:28N 27°57' W 082°27'0 0.0
2018-Feb-17 17:58N 27°57' W 082°27'0 0.0
2018-Feb-17 17:28N 27°57' W 082°27'0 0.0
2018-Feb-17 16:58N 27°57' W 082°27'0 0.0
2018-Feb-17 16:28N 27°57' W 082°27'0 0.0
2018-Feb-17 15:58N 27°57' W 082°27'0 0.0
2018-Feb-17 15:28N 27°57' W 082°27'0 0.0
2018-Feb-17 14:58N 27°57' W 082°27'0 0.0
2018-Feb-17 14:28N 27°57' W 082°27'0 0.0
2018-Feb-17 13:58N 27°57' W 082°27'0 0.0
2018-Feb-17 13:28N 27°57' W 082°27'0 0.0
2018-Feb-17 12:58N 27°57' W 082°27'0 0.0
2018-Feb-17 12:28N 27°57' W 082°27'0 0.0
2018-Feb-17 11:58N 27°57' W 082°27'0 0.0
2018-Feb-17 11:28N 27°57' W 082°27'0 0.0
2018-Feb-17 10:58N 27°57' W 082°27'0 0.0
2018-Feb-17 10:28N 27°57' W 082°27'0 0.0
2018-Feb-17 09:58N 27°57' W 082°27'0 0.0
2018-Feb-17 09:28N 27°57' W 082°27'0 0.0
2018-Feb-17 09:00N 27°57' W 082°27'1 1.0
2018-Feb-17 08:30N 27°56' W 082°27'2 3.8
2018-Feb-17 08:00N 27°54' W 082°26'4 8.7
2018-Feb-17 07:30N 27°50' W 082°27'510.6
2018-Feb-17 07:00N 27°47' W 082°31'913.6
2018-Feb-17 06:20N 27°39' W 082°37'33615.7
2018-Feb-16 09:00N 22°48' W 085°42'9315.4 070 / 131022.0 5.4 26.024.627.0
2018-Feb-16 03:00N 21°24' W 086°24'6116.4 090 / 191021.010.8 25.0 25.0
2018-Feb-15 23:19N 20°32' W 086°57'310.1
2018-Feb-15 23:00N 20°29' W 086°59'0 0.5
2018-Feb-15 22:29N 20°29' W 086°59'0 0.0
2018-Feb-15 21:59N 20°29' W 086°59'0 0.0
2018-Feb-15 21:29N 20°29' W 086°59'0 0.0
2018-Feb-15 20:59N 20°29' W 086°59'0 0.0
2018-Feb-15 20:29N 20°29' W 086°59'0 0.0
2018-Feb-15 19:56N 20°29' W 086°59'0 0.0
2018-Feb-15 19:26N 20°29' W 086°59'0 0.0
2018-Feb-15 18:59N 20°29' W 086°59'0 0.0
2018-Feb-15 18:29N 20°29' W 086°59'0 0.0
2018-Feb-15 17:56N 20°29' W 086°59'0 0.0
2018-Feb-15 17:29N 20°29' W 086°59'0 0.0
2018-Feb-15 16:56N 20°29' W 086°59'0 0.0
2018-Feb-15 16:29N 20°29' W 086°59'0 0.0
2018-Feb-15 15:59N 20°29' W 086°59'0 0.0
2018-Feb-15 15:29N 20°29' W 086°59'0 0.0
2018-Feb-15 14:59N 20°29' W 086°59'0 0.0
2018-Feb-15 14:29N 20°29' W 086°59'0 0.0
2018-Feb-15 13:59N 20°29' W 086°59'0 0.0
2018-Feb-15 13:29N 20°29' W 086°59'0 0.0
2018-Feb-15 12:59N 20°29' W 086°59'0 0.0
2018-Feb-15 12:29N 20°29' W 086°59'0 0.0
2018-Feb-15 11:56N 20°29' W 086°59'0 0.0
2018-Feb-15 11:27N 20°29' W 086°59'0 0.3
2018-Feb-15 11:01N 20°29' W 086°59'2 4.1
2018-Feb-15 10:31N 20°31' W 086°59'2315.2
2018-Feb-15 09:00N 20°48' W 086°42'6616.4 110 / 261023.0 5.4 25.023.627.0
2018-Feb-15 05:00N 21°36' W 085°54'193 9.6 060 / 191025.010.8 25.0 25.0
2018-Feb-14 09:00N 23°30' W 083°06'6112.2 080 / 141026.0 5.4 25.022.226.0
2018-Feb-14 04:00N 24°06' W 082°12'73 3.8 090 / 191028.010.8 24.0 24.0
2018-Feb-13 09:00N 24°54' W 083°12'17417.2 070 / 271026.0 5.4 23.021.623.0
2018-Feb-12 22:51N 27°44' W 082°32'413.0
2018-Feb-12 22:31N 27°48' W 082°29'612.7
2018-Feb-12 22:00N 27°54' W 082°26'2 4.6
2018-Feb-12 21:30N 27°56' W 082°27'1 1.3
2018-Feb-12 21:00N 27°57' W 082°27'0 0.0
2018-Feb-12 20:30N 27°57' W 082°27'0 0.0
2018-Feb-12 20:00N 27°57' W 082°27'0 0.0
2018-Feb-12 19:30N 27°57' W 082°27'0 0.0
2018-Feb-12 19:00N 27°57' W 082°27'0 0.0
2018-Feb-12 18:30N 27°57' W 082°27'0 0.0
2018-Feb-12 18:00N 27°57' W 082°27'0 0.0
2018-Feb-12 17:30N 27°57' W 082°27'0 0.0
2018-Feb-12 17:00N 27°57' W 082°27'0 0.0
2018-Feb-12 16:30N 27°57' W 082°27'0 0.0
2018-Feb-12 16:00N 27°57' W 082°27'0 0.0
2018-Feb-12 13:00N 27°57' W 082°27'0 0.0
2018-Feb-12 12:30N 27°57' W 082°27'0 0.0
2018-Feb-12 12:00N 27°57' W 082°27'0 0.0
2018-Feb-12 11:30N 27°57' W 082°27'0 0.0
2018-Feb-12 11:00N 27°57' W 082°27'0 0.0
2018-Feb-12 10:30N 27°57' W 082°27'0 0.0
2018-Feb-12 10:00N 27°57' W 082°27'0 0.0
2018-Feb-12 09:30N 27°57' W 082°27'0 0.0
2018-Feb-12 09:00N 27°57' W 082°27'0 0.8
2018-Feb-12 08:30N 27°56' W 082°27'1 2.9
2018-Feb-12 08:00N 27°55' W 082°27'4 8.6
2018-Feb-12 07:30N 27°51' W 082°27'612.5
2018-Feb-12 07:00N 27°46' W 082°31'8614.3
2018-Feb-12 01:00N 26°42' W 083°36'24715.5 150 / 91020.0 5.4 23.0 20.0
2018-Feb-11 09:00N 23°00' W 085°36'   130 / 151017.0 5.4 25.023.626.0

Dump ship's entire track history